Time;durP1;ratioP1;P1;durP2;ratioP2;P2;SDS_P1;SDS_P2;PMS_P1;PMS_P2;Temp;Humidity;BMP_temperature;BMP_pressure;BME280_temperature;BME280_humidity;BME280_pressure;Samples;Min_cycle;Max_cycle;Signal;HPM_P1;HPM_P2
2023/11/07 00:00:05;;;;;;;1.20;1.10;;;18.10;93.80;;;;;;5060892;28;20067;-81
2023/11/07 00:02:31;;;;;;;1.27;1.17;;;18.10;93.80;;;;;;5057677;28;20083;-81
2023/11/07 00:04:57;;;;;;;1.10;1.10;;;18.10;93.80;;;;;;5058304;28;20448;-81
2023/11/07 00:07:23;;;;;;;0.90;0.90;;;18.10;93.80;;;;;;5060252;28;20036;-82
2023/11/07 00:09:49;;;;;;;1.10;1.00;;;18.10;93.80;;;;;;5059455;28;20048;-82
2023/11/07 00:12:15;;;;;;;0.80;0.80;;;18.10;91.70;;;;;;5056806;28;20067;-80
2023/11/07 00:14:41;;;;;;;0.95;0.90;;;18.10;91.10;;;;;;5056028;28;20087;-81
2023/11/07 00:17:06;;;;;;;1.35;1.25;;;18.10;90.90;;;;;;5057843;28;20494;-80
2023/11/07 00:19:32;;;;;;;1.83;1.02;;;18.10;90.70;;;;;;5061342;28;20043;-80
2023/11/07 00:21:58;;;;;;;0.85;0.80;;;18.10;90.90;;;;;;5095425;28;20065;-82
2023/11/07 00:24:25;;;;;;;0.80;0.80;;;18.10;90.70;;;;;;5064098;28;20182;-82
2023/11/07 00:26:52;;;;;;;0.93;0.93;;;18.10;90.80;;;;;;5060817;28;20041;-82
2023/11/07 00:29:17;;;;;;;0.85;0.85;;;18.10;91.50;;;;;;5060817;28;20518;-82
2023/11/07 00:31:43;;;;;;;1.20;0.75;;;18.10;91.50;;;;;;5063265;28;20105;-82
2023/11/07 00:34:09;;;;;;;1.08;0.98;;;18.00;91.00;;;;;;5065168;28;20291;-82
2023/11/07 00:36:34;;;;;;;0.88;0.82;;;18.10;90.50;;;;;;5065119;28;20549;-82
2023/11/07 00:39:00;;;;;;;1.20;1.10;;;18.10;90.40;;;;;;5063340;28;20029;-82
2023/11/07 00:41:26;;;;;;;2.88;1.10;;;18.10;90.20;;;;;;5062394;28;20544;-84
2023/11/07 00:43:52;;;;;;;0.57;0.57;;;18.10;90.20;;;;;;5058299;28;20163;-85
2023/11/07 00:46:18;;;;;;;1.00;0.90;;;18.00;90.00;;;;;;5056785;28;20049;-84
2023/11/07 00:48:44;;;;;;;0.70;0.70;;;18.00;90.00;;;;;;5055525;28;20510;-84
2023/11/07 00:51:11;;;;;;;0.90;0.82;;;18.10;90.00;;;;;;5046238;28;20051;-84
2023/11/07 00:53:37;;;;;;;1.08;1.00;;;18.10;90.00;;;;;;5058557;28;20055;-84
2023/11/07 00:56:03;;;;;;;0.73;0.73;;;18.10;90.00;;;;;;5063732;28;20120;-84
2023/11/07 00:58:29;;;;;;;2.47;1.25;;;18.00;90.00;;;;;;5059636;28;20059;-83
2023/11/07 01:00:54;;;;;;;0.80;0.73;;;18.00;90.00;;;;;;5052161;28;20044;-84
2023/11/07 01:03:21;;;;;;;1.00;0.90;;;18.00;90.00;;;;;;5056090;28;20057;-84
2023/11/07 01:05:47;;;;;;;0.90;0.90;;;18.00;90.00;;;;;;5059274;28;20553;-84
2023/11/07 01:08:13;;;;;;;1.10;0.95;;;18.00;90.00;;;;;;5056321;28;20037;-83
2023/11/07 01:10:39;;;;;;;0.80;0.80;;;18.00;90.00;;;;;;5054458;28;20129;-84
2023/11/07 01:13:04;;;;;;;0.80;0.80;;;18.00;90.00;;;;;;5064695;28;20068;-84
2023/11/07 01:15:30;;;;;;;1.23;1.13;;;18.00;90.30;;;;;;5062582;28;20406;-84
2023/11/07 01:17:55;;;;;;;0.73;0.73;;;18.00;90.00;;;;;;5063484;28;20039;-85
2023/11/07 01:20:22;;;;;;;0.68;0.60;;;18.00;89.80;;;;;;5065774;28;20165;-85
2023/11/07 01:22:49;;;;;;;1.15;0.80;;;18.00;89.80;;;;;;5063434;28;20040;-85
2023/11/07 01:25:15;;;;;;;0.80;0.77;;;18.00;89.90;;;;;;5064328;28;20076;-84
2023/11/07 01:27:41;;;;;;;0.85;0.80;;;17.90;89.80;;;;;;5066367;28;20086;-84
2023/11/07 01:30:08;;;;;;;2.80;0.70;;;18.00;90.00;;;;;;5066468;28;20421;-84
2023/11/07 01:32:34;;;;;;;1.15;0.90;;;18.00;90.00;;;;;;5040697;28;20045;-84
2023/11/07 01:34:59;;;;;;;0.70;0.70;;;18.00;90.00;;;;;;5063315;28;20537;-84
2023/11/07 01:37:25;;;;;;;1.13;0.95;;;17.90;89.90;;;;;;5064523;28;20037;-84
2023/11/07 01:39:51;;;;;;;0.85;0.80;;;17.90;90.00;;;;;;5066712;28;20049;-84
2023/11/07 01:42:16;;;;;;;0.73;0.73;;;18.00;89.90;;;;;;5062579;28;20048;-84
2023/11/07 01:44:49;;;;;;;1.30;1.05;;;17.90;90.00;;;;;;5063056;28;20952;-84
2023/11/07 01:47:15;;;;;;;0.63;0.63;;;17.90;89.80;;;;;;5060234;28;20120;-84
2023/11/07 01:49:41;;;;;;;0.90;0.90;;;18.00;89.50;;;;;;5061635;28;20116;-84
2023/11/07 01:52:07;;;;;;;0.60;0.60;;;17.90;89.90;;;;;;5063852;28;20032;-84
2023/11/07 01:54:32;;;;;;;0.95;0.93;;;17.90;89.90;;;;;;5060780;28;20045;-84
2023/11/07 01:56:59;;;;;;;0.70;0.70;;;17.90;90.00;;;;;;5045860;28;20102;-84
2023/11/07 01:59:24;;;;;;;1.98;0.70;;;17.90;89.80;;;;;;5060474;28;20401;-84
2023/11/07 02:01:50;;;;;;;0.82;0.77;;;17.90;89.90;;;;;;5059588;28;20132;-85
2023/11/07 02:04:16;;;;;;;0.80;0.80;;;17.90;89.70;;;;;;5063717;28;20037;-83
2023/11/07 02:06:42;;;;;;;0.82;0.50;;;17.90;89.70;;;;;;5065166;28;20046;-83
2023/11/07 02:09:08;;;;;;;0.60;0.60;;;17.90;89.90;;;;;;5064163;28;20127;-83
2023/11/07 02:11:34;;;;;;;0.80;0.80;;;17.90;89.80;;;;;;5063915;28;20470;-83
2023/11/07 02:14:00;;;;;;;1.38;0.80;;;17.90;89.70;;;;;;5063379;28;20040;-83
2023/11/07 02:16:28;;;;;;;1.17;0.60;;;17.90;90.20;;;;;;5062073;28;20063;-83
2023/11/07 02:18:53;;;;;;;0.80;0.50;;;17.90;89.70;;;;;;5066021;28;20437;-84
2023/11/07 02:21:19;;;;;;;0.80;0.80;;;17.90;90.10;;;;;;5065091;28;20025;-83
2023/11/07 02:23:44;;;;;;;0.80;0.80;;;17.90;90.10;;;;;;5064458;28;20033;-83
2023/11/07 02:26:10;;;;;;;0.80;0.73;;;17.90;89.60;;;;;;5064661;28;20043;-84
2023/11/07 02:28:36;;;;;;;1.17;0.63;;;17.90;90.10;;;;;;5063785;28;20032;-84
2023/11/07 02:31:03;;;;;;;0.70;0.70;;;17.90;89.40;;;;;;5065057;28;20198;-84
2023/11/07 02:33:29;;;;;;;0.70;0.60;;;17.90;89.60;;;;;;5062912;28;20040;-84
2023/11/07 02:35:55;;;;;;;1.35;0.80;;;17.90;90.10;;;;;;5061504;28;20032;-83
2023/11/07 02:38:22;;;;;;;0.57;0.57;;;17.90;89.80;;;;;;5058838;28;20029;-83
2023/11/07 02:40:49;;;;;;;0.70;0.70;;;17.90;89.80;;;;;;5063592;28;20764;-83
2023/11/07 02:43:14;;;;;;;0.60;0.60;;;17.80;89.50;;;;;;5059905;28;20541;-83
2023/11/07 02:45:40;;;;;;;0.77;0.77;;;17.90;89.60;;;;;;5067002;28;20124;-83
2023/11/07 02:48:06;;;;;;;0.63;0.63;;;17.90;89.80;;;;;;5063307;28;20033;-83
2023/11/07 02:50:31;;;;;;;2.05;0.80;;;17.80;89.80;;;;;;5062394;28;20113;-83
2023/11/07 02:52:58;;;;;;;0.50;0.50;;;17.80;89.90;;;;;;5063052;28;20047;-83
2023/11/07 02:55:23;;;;;;;2.45;0.70;;;17.80;89.70;;;;;;5058542;28;20048;-84
2023/11/07 02:57:49;;;;;;;0.80;0.80;;;17.80;89.90;;;;;;5062777;28;20040;-84
2023/11/07 03:00:15;;;;;;;2.83;0.70;;;17.80;89.90;;;;;;5060844;28;20040;-83
2023/11/07 03:02:41;;;;;;;2.00;0.90;;;17.80;89.70;;;;;;5059271;28;20173;-83
2023/11/07 03:05:08;;;;;;;1.05;0.52;;;17.80;89.80;;;;;;5061229;28;20533;-83
2023/11/07 03:07:34;;;;;;;0.70;0.70;;;17.80;89.90;;;;;;5061313;28;20502;-83
2023/11/07 03:10:00;;;;;;;0.77;0.65;;;17.80;89.80;;;;;;5062436;28;20137;-83
2023/11/07 03:12:30;;;;;;;1.05;0.95;;;17.80;89.60;;;;;;5059458;28;20514;-83
2023/11/07 03:14:55;;;;;;;0.70;0.70;;;17.80;89.80;;;;;;5062589;28;20107;-84
2023/11/07 03:17:23;;;;;;;0.77;0.60;;;17.80;89.90;;;;;;5061135;28;20523;-83
2023/11/07 03:19:51;;;;;;;0.68;0.68;;;17.80;89.80;;;;;;5063294;28;20573;-83
2023/11/07 03:22:19;;;;;;;1.05;0.93;;;17.80;89.80;;;;;;5060428;28;20059;-83
2023/11/07 03:24:45;;;;;;;0.60;0.60;;;17.80;89.70;;;;;;5063082;28;20047;-83
2023/11/07 03:27:11;;;;;;;0.85;0.85;;;17.80;89.60;;;;;;5060700;28;20033;-83
2023/11/07 03:29:36;;;;;;;0.70;0.70;;;17.80;89.60;;;;;;5059400;28;20383;-83
2023/11/07 03:32:02;;;;;;;0.90;0.82;;;17.80;89.40;;;;;;5057326;28;20032;-83
2023/11/07 03:34:28;;;;;;;0.75;0.75;;;17.80;89.40;;;;;;5058680;28;20465;-83
2023/11/07 03:36:53;;;;;;;0.80;0.80;;;17.80;89.80;;;;;;5063301;28;20045;-83
2023/11/07 03:39:19;;;;;;;0.65;0.65;;;17.70;89.30;;;;;;5060952;28;20048;-83
2023/11/07 03:41:47;;;;;;;1.00;0.80;;;17.70;89.40;;;;;;5062786;28;20132;-84
2023/11/07 03:44:13;;;;;;;1.65;0.90;;;17.70;89.50;;;;;;5057491;28;20056;-84
2023/11/07 03:46:38;;;;;;;0.73;0.73;;;17.70;89.70;;;;;;5058721;28;20048;-83
2023/11/07 03:49:04;;;;;;;1.17;0.75;;;17.70;89.70;;;;;;5062745;28;20097;-84
2023/11/07 03:51:29;;;;;;;0.82;0.70;;;17.70;89.50;;;;;;5061152;28;20187;-83
2023/11/07 03:53:55;;;;;;;0.70;0.70;;;17.70;89.60;;;;;;5059630;28;20037;-83
2023/11/07 03:56:21;;;;;;;0.77;0.77;;;17.70;89.60;;;;;;5063372;28;20033;-82
2023/11/07 03:58:46;;;;;;;0.82;0.70;;;17.70;89.40;;;;;;5062781;28;20170;-83
2023/11/07 04:01:12;;;;;;;1.00;0.88;;;17.70;89.20;;;;;;5060336;28;20040;-83
2023/11/07 04:03:38;;;;;;;0.40;0.40;;;17.70;89.40;;;;;;5061912;28;20048;-83
2023/11/07 04:06:03;;;;;;;0.85;0.85;;;17.70;89.50;;;;;;5060254;28;20048;-83
2023/11/07 04:08:29;;;;;;;0.60;0.60;;;17.70;89.20;;;;;;5061155;28;20422;-82
2023/11/07 04:10:55;;;;;;;1.30;0.80;;;17.70;89.20;;;;;;5060534;28;20689;-83
2023/11/07 04:13:20;;;;;;;0.70;0.70;;;17.70;89.50;;;;;;5060724;28;20044;-82
2023/11/07 04:15:46;;;;;;;0.80;0.80;;;17.70;89.30;;;;;;5063671;28;20499;-83
2023/11/07 04:18:12;;;;;;;1.08;0.70;;;17.70;89.40;;;;;;5061468;28;20475;-83
2023/11/07 04:20:42;;;;;;;0.70;0.70;;;17.70;89.40;;;;;;5062342;28;20048;-84
2023/11/07 04:23:09;;;;;;;0.68;0.68;;;17.70;89.40;;;;;;5060961;28;20051;-83
2023/11/07 04:25:35;;;;;;;0.70;0.70;;;17.70;89.30;;;;;;5060353;28;20079;-83
2023/11/07 04:28:00;;;;;;;0.60;0.60;;;17.70;89.60;;;;;;5063180;28;20399;-83
2023/11/07 04:30:27;;;;;;;0.70;0.70;;;17.70;89.40;;;;;;5062657;28;20045;-83
2023/11/07 04:32:52;;;;;;;0.57;0.57;;;17.60;89.40;;;;;;5061265;28;20051;-83
2023/11/07 04:35:18;;;;;;;0.70;0.70;;;17.60;89.50;;;;;;5061397;28;20037;-78
2023/11/07 04:37:44;;;;;;;0.60;0.60;;;17.60;89.30;;;;;;5061341;28;20041;-83
2023/11/07 04:40:09;;;;;;;0.85;0.85;;;17.60;89.20;;;;;;5060979;28;20064;-83
2023/11/07 04:42:35;;;;;;;0.75;0.63;;;17.60;89.20;;;;;;5064729;28;20050;-83
2023/11/07 04:45:01;;;;;;;0.50;0.50;;;17.60;89.20;;;;;;5061163;28;20048;-83
2023/11/07 04:47:27;;;;;;;0.68;0.63;;;17.60;89.60;;;;;;5062216;28;20601;-82
2023/11/07 04:49:58;;;;;;;0.50;0.50;;;17.60;89.50;;;;;;5062047;28;20059;-83
2023/11/07 04:52:23;;;;;;;0.60;0.60;;;17.60;89.20;;;;;;5061034;28;20046;-82
2023/11/07 04:54:49;;;;;;;0.82;0.65;;;17.60;89.20;;;;;;5063925;28;20041;-82
2023/11/07 04:57:15;;;;;;;1.33;0.57;;;17.60;89.20;;;;;;5061821;28;20044;-83
2023/11/07 04:59:41;;;;;;;0.82;0.82;;;17.60;89.20;;;;;;5060962;28;20106;-83
2023/11/07 05:02:07;;;;;;;0.80;0.60;;;17.60;89.30;;;;;;5061601;28;20049;-83
2023/11/07 05:04:33;;;;;;;0.93;0.73;;;17.60;89.40;;;;;;5060437;28;20045;-83
2023/11/07 05:06:59;;;;;;;0.75;0.73;;;17.60;89.20;;;;;;5066405;28;20438;-83
2023/11/07 05:09:25;;;;;;;0.70;0.52;;;17.60;90.00;;;;;;5064196;28;20048;-82
2023/11/07 05:11:51;;;;;;;0.40;0.40;;;17.60;89.20;;;;;;5064397;28;20040;-83
2023/11/07 05:14:16;;;;;;;0.65;0.65;;;17.60;88.90;;;;;;5048330;28;20051;-82
2023/11/07 05:16:42;;;;;;;1.00;0.70;;;17.60;89.40;;;;;;5064462;28;20498;-83
2023/11/07 05:19:08;;;;;;;0.60;0.60;;;17.60;89.10;;;;;;5065618;28;20037;-83
2023/11/07 05:21:33;;;;;;;0.70;0.70;;;17.60;89.30;;;;;;5065102;28;20102;-82
2023/11/07 05:23:59;;;;;;;0.50;0.43;;;17.60;89.00;;;;;;5096938;28;20506;-83
2023/11/07 05:26:25;;;;;;;0.73;0.73;;;17.60;89.30;;;;;;5061833;28;20075;-82
2023/11/07 05:28:50;;;;;;;1.00;0.90;;;17.60;89.60;;;;;;5065659;28;20028;-82
2023/11/07 05:31:19;;;;;;;0.65;0.60;;;17.60;89.30;;;;;;5064739;28;20060;-82
2023/11/07 05:33:44;;;;;;;1.25;0.73;;;17.70;89.40;;;;;;5066645;28;20064;-82
2023/11/07 05:36:11;;;;;;;0.50;0.50;;;17.60;89.40;;;;;;5064708;28;20043;-82
2023/11/07 05:38:36;;;;;;;0.70;0.68;;;17.60;89.30;;;;;;5062797;28;20403;-82
2023/11/07 05:41:02;;;;;;;1.02;0.70;;;17.60;89.10;;;;;;5064128;28;20059;-82
2023/11/07 05:43:28;;;;;;;2.30;0.55;;;17.60;89.00;;;;;;5063265;28;20040;-81
2023/11/07 05:45:53;;;;;;;0.90;0.60;;;17.60;89.20;;;;;;5068651;28;20151;-82
2023/11/07 05:48:24;;;;;;;0.68;0.68;;;17.60;89.20;;;;;;5063554;28;20048;-82
2023/11/07 05:50:52;;;;;;;1.58;0.75;;;17.60;89.10;;;;;;5065929;28;20049;-83
2023/11/07 05:53:20;;;;;;;0.80;0.80;;;17.60;89.00;;;;;;5063458;28;20633;-82
2023/11/07 05:55:46;;;;;;;0.80;0.80;;;17.60;88.90;;;;;;5061687;28;20056;-82
2023/11/07 05:58:12;;;;;;;0.68;0.60;;;17.60;88.80;;;;;;5065145;28;20068;-82
2023/11/07 06:00:38;;;;;;;1.10;0.57;;;17.60;88.90;;;;;;5065947;28;20064;-82
2023/11/07 06:03:04;;;;;;;0.50;0.50;;;17.60;89.00;;;;;;5062212;28;20047;-83
2023/11/07 06:05:30;;;;;;;0.93;0.80;;;17.60;88.80;;;;;;5063234;28;20063;-82
2023/11/07 06:07:56;;;;;;;0.70;0.70;;;17.60;89.00;;;;;;5066452;28;20033;-78
2023/11/07 06:10:22;;;;;;;1.27;0.60;;;17.60;88.80;;;;;;5065892;28;20117;-78
2023/11/07 06:12:48;;;;;;;2.38;0.82;;;17.50;88.90;;;;;;5065616;28;20502;-78
2023/11/07 06:15:14;;;;;;;2.53;0.80;;;17.50;88.90;;;;;;5080057;28;20051;-77
2023/11/07 06:17:39;;;;;;;1.00;0.77;;;17.50;89.00;;;;;;5064709;28;20328;-79
2023/11/07 06:20:05;;;;;;;0.57;0.47;;;17.50;88.80;;;;;;5064564;28;20565;-78
2023/11/07 06:22:31;;;;;;;1.42;0.50;;;17.50;88.80;;;;;;5063831;28;20175;-79
2023/11/07 06:24:57;;;;;;;2.03;0.50;;;17.50;88.70;;;;;;5098333;28;20406;-78
2023/11/07 06:27:22;;;;;;;0.68;0.50;;;17.50;88.70;;;;;;5066373;28;20039;-78
2023/11/07 06:29:48;;;;;;;0.70;0.50;;;17.50;88.90;;;;;;5062591;28;20066;-79
2023/11/07 06:32:14;;;;;;;1.35;0.70;;;17.50;88.70;;;;;;5072585;28;20197;-78
2023/11/07 06:34:40;;;;;;;0.85;0.60;;;17.50;88.70;;;;;;5061554;28;20137;-78
2023/11/07 06:37:06;;;;;;;0.40;0.40;;;17.60;88.70;;;;;;5065833;28;20039;-78
2023/11/07 06:39:32;;;;;;;0.57;0.57;;;17.50;88.80;;;;;;5045408;28;20035;-78
2023/11/07 06:41:58;;;;;;;0.82;0.50;;;17.50;88.80;;;;;;5064346;28;20060;-78
2023/11/07 06:44:24;;;;;;;3.97;0.82;;;17.50;88.60;;;;;;5063441;28;20024;-79
2023/11/07 06:46:51;;;;;;;0.80;0.60;;;17.50;89.00;;;;;;5061616;28;20052;-78
2023/11/07 06:49:17;;;;;;;1.75;0.50;;;17.50;88.90;;;;;;5062868;28;20053;-78
2023/11/07 06:51:43;;;;;;;0.77;0.77;;;17.50;89.00;;;;;;4745112;28;9999859;-79
2023/11/07 06:54:09;;;;;;;3.28;0.85;;;17.50;89.00;;;;;;5040517;28;20841;-78
2023/11/07 06:56:34;;;;;;;1.13;1.02;;;17.50;88.90;;;;;;5059987;28;20047;-78
2023/11/07 06:59:00;;;;;;;1.48;0.77;;;17.50;89.10;;;;;;5059495;28;20522;-79
2023/11/07 07:01:28;;;;;;;0.75;0.75;;;17.50;89.10;;;;;;5057495;28;20041;-80
2023/11/07 07:03:54;;;;;;;3.25;0.88;;;17.50;89.20;;;;;;5060537;28;20044;-79
2023/11/07 07:06:23;;;;;;;0.73;0.73;;;17.50;89.30;;;;;;5058240;28;20087;-80
2023/11/07 07:08:49;;;;;;;1.42;0.80;;;17.50;89.20;;;;;;5089338;28;20044;-79
2023/11/07 07:11:15;;;;;;;1.23;0.73;;;17.50;89.70;;;;;;5057102;28;20044;-79
2023/11/07 07:13:41;;;;;;;2.90;0.82;;;17.50;89.10;;;;;;5038592;28;20520;-80
2023/11/07 07:16:08;;;;;;;0.60;0.60;;;17.50;89.40;;;;;;5058040;28;20040;-80
2023/11/07 07:18:34;;;;;;;0.65;0.65;;;17.50;89.30;;;;;;5055182;28;20046;-79
2023/11/07 07:21:00;;;;;;;1.90;0.70;;;17.50;89.30;;;;;;5053842;28;20146;-80
2023/11/07 07:23:25;;;;;;;2.10;0.70;;;17.50;89.50;;;;;;5090304;28;20068;-80
2023/11/07 07:25:53;;;;;;;1.52;0.75;;;17.50;89.50;;;;;;5075589;28;20041;-80
2023/11/07 07:28:20;;;;;;;0.60;0.60;;;17.50;89.40;;;;;;5025963;28;20561;-80
2023/11/07 07:30:47;;;;;;;1.65;0.65;;;17.50;89.40;;;;;;5049671;28;20041;-79
2023/11/07 07:33:16;;;;;;;1.52;0.75;;;17.50;89.40;;;;;;5052960;28;20166;-80
2023/11/07 07:35:45;;;;;;;1.27;0.68;;;17.50;89.30;;;;;;5087548;28;20502;-79
2023/11/07 07:38:10;;;;;;;0.60;0.60;;;17.50;89.30;;;;;;5061471;28;20068;-79
2023/11/07 07:40:38;;;;;;;0.57;0.57;;;17.50;89.30;;;;;;5086117;28;20039;-79
2023/11/07 07:43:09;;;;;;;0.65;0.52;;;17.50;89.30;;;;;;5090493;28;20052;-79
2023/11/07 07:45:35;;;;;;;0.50;0.50;;;17.50;89.40;;;;;;5045767;28;20068;-79
2023/11/07 07:48:06;;;;;;;0.70;0.70;;;17.50;89.30;;;;;;5039134;28;20072;-80
2023/11/07 07:50:32;;;;;;;1.05;0.45;;;17.50;89.30;;;;;;5036515;28;20052;-79
2023/11/07 07:53:01;;;;;;;4.00;1.10;;;17.50;89.50;;;;;;5075259;28;20098;-77
2023/11/07 07:55:27;;;;;;;2.08;0.68;;;17.60;89.70;;;;;;5061232;28;20098;-77
2023/11/07 07:57:54;;;;;;;0.70;0.70;;;17.60;89.20;;;;;;5043716;28;20056;-76
2023/11/07 08:00:24;;;;;;;1.00;1.00;;;17.60;89.30;;;;;;5039534;28;20052;-76
2023/11/07 08:02:53;;;;;;;0.90;0.80;;;17.60;89.20;;;;;;5043416;28;20391;-76
2023/11/07 08:05:18;;;;;;;0.70;0.63;;;17.60;89.50;;;;;;5061682;28;20037;-76
2023/11/07 08:07:44;;;;;;;0.82;0.80;;;17.60;89.10;;;;;;5060799;28;20086;-76
2023/11/07 08:10:16;;;;;;;0.60;0.60;;;17.60;89.20;;;;;;5043731;28;20048;-76
2023/11/07 08:12:43;;;;;;;0.63;0.63;;;17.60;89.00;;;;;;5046654;28;20518;-77
2023/11/07 08:15:09;;;;;;;1.23;0.90;;;17.60;89.20;;;;;;5061361;28;20040;-76
2023/11/07 08:17:35;;;;;;;3.22;0.80;;;17.50;89.20;;;;;;5060092;28;20036;-77
2023/11/07 08:20:04;;;;;;;1.42;0.93;;;17.50;89.30;;;;;;5043656;28;20098;-77
2023/11/07 08:22:29;;;;;;;0.77;0.70;;;17.50;89.20;;;;;;5046673;28;20047;-77
2023/11/07 08:24:55;;;;;;;0.70;0.60;;;17.50;89.30;;;;;;5046079;28;20045;-77
2023/11/07 08:27:22;;;;;;;0.80;0.50;;;17.50;89.20;;;;;;5059970;28;20067;-77
2023/11/07 08:29:48;;;;;;;1.05;0.73;;;17.50;89.10;;;;;;5045838;28;20043;-77
2023/11/07 08:32:14;;;;;;;0.55;0.55;;;17.50;89.20;;;;;;5029372;28;20037;-76
2023/11/07 08:34:41;;;;;;;0.80;0.68;;;17.50;89.10;;;;;;5061354;28;20045;-76
2023/11/07 08:37:07;;;;;;;0.68;0.50;;;17.50;89.10;;;;;;5062637;28;20044;-77
2023/11/07 08:39:33;;;;;;;0.60;0.60;;;17.50;89.10;;;;;;5062701;28;20091;-76
2023/11/07 08:41:59;;;;;;;0.68;0.63;;;17.50;89.00;;;;;;5050539;28;20055;-76
2023/11/07 08:44:24;;;;;;;1.98;0.80;;;17.50;89.10;;;;;;5033367;28;20040;-76
2023/11/07 08:46:50;;;;;;;0.93;0.70;;;17.50;89.00;;;;;;5063223;28;20037;-75
2023/11/07 08:49:19;;;;;;;0.82;0.82;;;17.50;88.70;;;;;;5048302;28;20127;-76
2023/11/07 08:51:50;;;;;;;0.73;0.73;;;17.50;89.20;;;;;;5094471;28;20032;-77
2023/11/07 08:54:18;;;;;;;0.77;0.68;;;17.50;88.90;;;;;;5062027;28;20119;-76
2023/11/07 08:56:44;;;;;;;0.70;0.70;;;17.60;89.10;;;;;;5074176;28;20106;-76
2023/11/07 08:59:09;;;;;;;2.33;0.80;;;17.60;89.00;;;;;;5065224;28;20045;-77
2023/11/07 09:01:35;;;;;;;0.80;0.60;;;17.60;89.00;;;;;;5047611;28;20059;-78
2023/11/07 09:04:03;;;;;;;2.15;0.73;;;17.60;89.00;;;;;;5066064;28;20119;-77
2023/11/07 09:06:29;;;;;;;1.60;0.70;;;17.60;89.10;;;;;;5049729;28;20577;-77
2023/11/07 09:08:55;;;;;;;0.60;0.50;;;17.60;89.30;;;;;;5064228;28;20127;-76
2023/11/07 09:11:20;;;;;;;1.17;0.55;;;17.60;89.20;;;;;;5051769;28;20698;-76
2023/11/07 09:13:46;;;;;;;1.67;0.70;;;17.60;89.30;;;;;;5060668;28;20048;-75
2023/11/07 09:16:11;;;;;;;0.60;0.60;;;17.70;89.10;;;;;;5048207;28;20029;-76
2023/11/07 09:18:38;;;;;;;0.60;0.45;;;17.70;89.40;;;;;;5063541;28;20116;-78
2023/11/07 09:21:04;;;;;;;1.35;0.80;;;17.70;89.50;;;;;;5033708;28;20075;-76
2023/11/07 09:23:29;;;;;;;1.67;0.60;;;17.70;90.00;;;;;;5050198;28;20053;-76
2023/11/07 09:25:55;;;;;;;1.20;0.60;;;17.80;89.60;;;;;;5063525;28;20036;-77
2023/11/07 09:28:21;;;;;;;1.08;0.80;;;17.70;89.70;;;;;;5049349;28;20125;-76
2023/11/07 09:30:46;;;;;;;0.90;0.85;;;17.80;89.60;;;;;;5065928;28;20036;-76
2023/11/07 09:33:12;;;;;;;1.48;1.00;;;17.80;89.40;;;;;;5063951;28;20061;-76
2023/11/07 09:35:38;;;;;;;0.63;0.50;;;17.80;90.00;;;;;;5063205;28;20060;-78
2023/11/07 09:38:04;;;;;;;1.48;0.70;;;17.80;90.10;;;;;;5048117;28;20110;-76
2023/11/07 09:40:29;;;;;;;0.77;0.50;;;17.80;90.20;;;;;;5080395;28;20101;-76
2023/11/07 09:42:55;;;;;;;1.00;0.90;;;17.80;90.00;;;;;;5066850;28;20048;-76
2023/11/07 09:45:21;;;;;;;1.30;0.90;;;17.80;90.00;;;;;;5063069;28;20061;-75
2023/11/07 09:47:47;;;;;;;0.50;0.50;;;17.80;90.00;;;;;;5074467;28;20463;-76
2023/11/07 09:50:20;;;;;;;0.70;0.70;;;17.80;89.40;;;;;;5047846;28;20517;-76
2023/11/07 09:52:47;;;;;;;0.75;0.75;;;17.80;89.60;;;;;;5059598;28;20037;-77
2023/11/07 09:55:16;;;;;;;0.57;0.50;;;17.80;89.50;;;;;;5048079;28;20119;-77
2023/11/07 09:57:42;;;;;;;0.50;0.50;;;17.90;89.60;;;;;;5064745;28;20039;-77
2023/11/07 10:00:09;;;;;;;1.05;0.57;;;17.80;89.60;;;;;;5047076;28;20033;-77
2023/11/07 10:02:35;;;;;;;0.82;0.70;;;17.80;89.50;;;;;;5061034;28;20045;-76
2023/11/07 10:05:02;;;;;;;0.60;0.60;;;17.90;89.70;;;;;;5064986;28;20044;-76
2023/11/07 10:07:28;;;;;;;0.50;0.50;;;17.90;90.20;;;;;;5063257;28;20072;-77
2023/11/07 10:09:54;;;;;;;0.75;0.52;;;17.90;89.60;;;;;;5065503;28;20137;-77
2023/11/07 10:12:20;;;;;;;0.80;0.60;;;17.90;89.70;;;;;;5064384;28;20044;-76
2023/11/07 10:14:46;;;;;;;0.73;0.70;;;17.90;89.70;;;;;;5095783;28;20039;-77
2023/11/07 10:17:21;;;;;;;1.05;0.57;;;17.90;89.70;;;;;;5070376;28;20557;-75
2023/11/07 10:19:58;;;;;;;1.33;0.63;;;17.90;89.80;;;;;;5061603;28;20033;-76
2023/11/07 10:22:24;;;;;;;1.95;0.70;;;17.90;89.70;;;;;;5061680;28;20459;-75
2023/11/07 10:24:50;;;;;;;0.80;0.80;;;17.90;89.70;;;;;;5046175;28;20041;-77
2023/11/07 10:27:16;;;;;;;0.50;0.47;;;17.90;89.60;;;;;;5048201;28;20197;-76
2023/11/07 10:29:51;;;;;;;0.63;0.60;;;17.90;89.70;;;;;;5074770;28;20478;-75
2023/11/07 10:32:17;;;;;;;1.10;0.70;;;17.90;89.60;;;;;;5056937;28;20048;-76
2023/11/07 10:34:43;;;;;;;0.60;0.60;;;18.00;89.80;;;;;;5061919;28;20074;-77
2023/11/07 10:37:09;;;;;;;1.60;1.00;;;18.00;89.80;;;;;;5063868;28;20033;-76
2023/11/07 10:39:35;;;;;;;0.88;0.70;;;18.00;89.80;;;;;;5063107;28;20102;-76
2023/11/07 10:42:16;;;;;;;0.80;0.80;;;18.00;89.80;;;;;;5045887;28;20047;-76
2023/11/07 10:44:43;;;;;;;1.50;0.63;;;18.00;89.80;;;;;;5061004;28;20049;-77
2023/11/07 10:47:08;;;;;;;0.50;0.50;;;18.00;89.70;;;;;;5046179;28;20121;-76
2023/11/07 10:49:36;;;;;;;1.40;0.68;;;18.00;89.70;;;;;;5058040;28;20049;-76
2023/11/07 10:52:02;;;;;;;2.63;0.60;;;18.10;89.80;;;;;;5061151;28;20055;-77
2023/11/07 10:54:30;;;;;;;0.60;0.50;;;18.00;89.80;;;;;;5064125;28;20063;-77
2023/11/07 10:56:56;;;;;;;1.33;0.65;;;18.10;89.80;;;;;;5059960;28;20037;-76
2023/11/07 10:59:24;;;;;;;1.38;0.57;;;18.00;89.70;;;;;;5060732;28;20040;-76
2023/11/07 11:01:51;;;;;;;0.63;0.52;;;18.10;89.70;;;;;;5046836;28;20029;-77
2023/11/07 11:04:17;;;;;;;0.90;0.45;;;18.00;89.60;;;;;;5062123;28;20037;-76
2023/11/07 11:06:48;;;;;;;1.60;0.60;;;18.00;89.70;;;;;;5047543;28;20040;-77
2023/11/07 11:09:13;;;;;;;0.50;0.50;;;18.10;89.60;;;;;;5060397;28;20090;-76
2023/11/07 11:11:42;;;;;;;0.55;0.50;;;18.10;89.70;;;;;;5044626;28;20032;-76
2023/11/07 11:14:08;;;;;;;1.25;0.50;;;18.10;89.60;;;;;;5044486;28;20040;-77
2023/11/07 11:16:39;;;;;;;0.70;0.40;;;18.10;89.60;;;;;;5060633;28;20223;-76
2023/11/07 11:19:28;;;;;;;2.20;0.50;;;18.10;89.50;;;;;;5044137;28;20106;-76
2023/11/07 11:22:00;;;;;;;1.73;0.45;;;18.10;89.60;;;;;;5076698;28;20041;-77
2023/11/07 11:24:41;;;;;;;2.00;0.40;;;18.10;90.10;;;;;;5062593;28;20115;-76
2023/11/07 11:27:28;;;;;;;0.57;0.57;;;18.10;89.50;;;;;;5062106;28;20545;-76
2023/11/07 11:29:54;;;;;;;0.60;0.50;;;18.10;89.50;;;;;;5057763;28;20072;-77
2023/11/07 11:32:27;;;;;;;0.52;0.40;;;18.10;89.50;;;;;;5062570;28;20084;-77
2023/11/07 11:35:12;;;;;;;0.88;0.50;;;18.10;89.50;;;;;;5044034;28;20048;-77
2023/11/07 11:38:21;;;;;;;0.50;0.50;;;18.10;89.50;;;;;;5062627;28;20064;-76
2023/11/07 11:40:54;;;;;;;0.43;0.40;;;18.10;89.50;;;;;;5057080;28;20045;-76
2023/11/07 11:43:24;;;;;;;0.30;0.30;;;18.10;89.50;;;;;;5060409;28;20563;-76
2023/11/07 11:45:50;;;;;;;0.68;0.40;;;18.10;89.50;;;;;;5063161;28;20045;-76
2023/11/07 11:48:17;;;;;;;0.95;0.50;;;18.20;89.60;;;;;;5061940;28;20033;-76
2023/11/07 11:50:45;;;;;;;0.50;0.40;;;18.10;89.40;;;;;;5062167;28;20036;-76
2023/11/07 11:53:31;;;;;;;0.50;0.40;;;18.10;89.50;;;;;;5062522;28;20047;-77
2023/11/07 11:55:59;;;;;;;0.50;0.50;;;18.20;89.40;;;;;;4694098;28;10000061;-77
2023/11/07 11:58:31;;;;;;;0.80;0.73;;;18.10;89.40;;;;;;5060465;28;20525;-77
2023/11/07 12:01:00;;;;;;;0.40;0.40;;;18.20;89.40;;;;;;5060583;28;20059;-77
2023/11/07 12:03:46;;;;;;;0.30;0.30;;;18.10;89.40;;;;;;5070367;28;20044;-77
2023/11/07 12:06:13;;;;;;;0.55;0.38;;;18.20;89.50;;;;;;5059126;28;20041;-77
2023/11/07 12:08:41;;;;;;;0.65;0.40;;;18.20;89.50;;;;;;5059252;28;20032;-75
2023/11/07 12:11:06;;;;;;;0.47;0.47;;;18.20;89.60;;;;;;5057998;28;20049;-77
2023/11/07 12:13:32;;;;;;;0.90;0.50;;;18.20;89.60;;;;;;5057724;28;20082;-78
2023/11/07 12:16:13;;;;;;;1.65;0.38;;;18.20;89.50;;;;;;5061262;28;20051;-77
2023/11/07 12:18:42;;;;;;;0.40;0.40;;;18.20;89.50;;;;;;5063551;28;20048;-77
2023/11/07 12:21:11;;;;;;;2.28;0.60;;;18.20;89.50;;;;;;5048022;28;20510;-77
2023/11/07 12:23:36;;;;;;;0.82;0.60;;;18.30;89.60;;;;;;5043612;28;20044;-78
2023/11/07 12:26:03;;;;;;;0.47;0.47;;;18.30;89.20;;;;;;5061453;28;20115;-79
2023/11/07 12:28:28;;;;;;;0.73;0.40;;;18.30;89.30;;;;;;5062025;28;20114;-79
2023/11/07 12:30:54;;;;;;;0.93;0.60;;;18.30;89.30;;;;;;5062690;28;20522;-78
2023/11/07 12:33:20;;;;;;;1.25;0.30;;;18.30;89.60;;;;;;5058400;28;20102;-79
2023/11/07 12:35:48;;;;;;;1.67;0.30;;;18.30;89.60;;;;;;5061048;28;20060;-79
2023/11/07 12:38:15;;;;;;;2.25;0.40;;;18.20;89.30;;;;;;5063043;28;20051;-78
2023/11/07 12:40:41;;;;;;;0.80;0.50;;;18.20;89.30;;;;;;5044532;28;20132;-79
2023/11/07 12:43:10;;;;;;;0.50;0.32;;;18.30;89.40;;;;;;5045081;28;20573;-78